Time;durP1;ratioP1;P1;durP2;ratioP2;P2;SDS_P1;SDS_P2;PMS_P1;PMS_P2;Temp;Humidity;BMP_temperature;BMP_pressure;BME280_temperature;BME280_humidity;BME280_pressure;Samples;Min_cycle;Max_cycle;Signal;HPM_P1;HPM_P2
2023/07/30 00:01:57;;;;;;;8.33;3.27;;;;;;;14.84;90.09;100773.69;5282936;28;20079;-73
2023/07/30 00:04:28;;;;;;;13.03;4.03;;;;;;;14.83;90.48;100769.38;5286192;28;20032;-73
2023/07/30 00:07:00;;;;;;;10.50;3.90;;;;;;;14.82;90.12;100777.28;5287427;28;20032;-73
2023/07/30 00:09:31;;;;;;;5.67;3.10;;;;;;;14.75;90.39;100776.63;5287344;28;20491;-73
2023/07/30 00:12:07;;;;;;;6.73;3.27;;;;;;;14.70;91.01;100779.38;5286953;28;20064;-72
2023/07/30 00:14:38;;;;;;;10.60;3.45;;;;;;;14.73;91.01;100774.03;5286024;28;20040;-72
2023/07/30 00:17:09;;;;;;;12.10;3.30;;;;;;;14.65;91.40;100767.28;5287282;28;20387;-72
2023/07/30 00:19:41;;;;;;;9.50;3.10;;;;;;;14.62;92.27;100767.38;5286782;28;20145;-73
2023/07/30 00:22:12;;;;;;;9.17;2.93;;;;;;;14.56;92.06;100766.63;5287337;28;20445;-72
2023/07/30 00:24:43;;;;;;;10.50;3.43;;;;;;;14.54;92.19;100778.09;5287018;28;20451;-72
2023/07/30 00:27:15;;;;;;;9.77;3.83;;;;;;;14.55;92.40;100775.41;5285817;28;20487;-72
2023/07/30 00:29:46;;;;;;;8.57;3.90;;;;;;;14.52;92.21;100770.25;5286918;28;20032;-73
2023/07/30 00:32:17;;;;;;;10.47;4.20;;;;;;;14.42;93.04;100771.41;5285690;28;20029;-71
2023/07/30 00:34:49;;;;;;;14.90;3.80;;;;;;;14.39;93.30;100771.50;5287049;28;20029;-72
2023/07/30 00:37:20;;;;;;;9.27;3.50;;;;;;;14.43;93.17;100773.16;5285586;28;20036;-73
2023/07/30 00:39:52;;;;;;;8.03;3.50;;;;;;;14.39;93.71;100780.25;5285267;28;20125;-73
2023/07/30 00:42:23;;;;;;;11.80;3.93;;;;;;;14.33;93.79;100783.03;5286706;28;20082;-73
2023/07/30 00:44:55;;;;;;;9.00;3.80;;;;;;;14.41;94.05;100772.34;5286577;28;20036;-72
2023/07/30 00:47:26;;;;;;;10.27;3.50;;;;;;;14.33;93.82;100775.16;5286322;28;20024;-72
2023/07/30 00:49:58;;;;;;;12.55;4.00;;;;;;;14.29;94.25;100778.78;5286020;28;20094;-72
2023/07/30 00:52:30;;;;;;;9.53;4.10;;;;;;;14.30;94.16;100777.88;5286015;28;20059;-73
2023/07/30 00:55:06;;;;;;;10.07;3.67;;;;;;;14.34;94.65;100786.50;5286574;28;20043;-72
2023/07/30 00:57:39;;;;;;;8.32;4.20;;;;;;;14.29;94.75;100784.00;5286351;28;20112;-72
2023/07/30 01:00:11;;;;;;;12.52;4.55;;;;;;;14.30;94.95;100790.13;5286358;28;20033;-73
2023/07/30 01:02:43;;;;;;;11.77;4.25;;;;;;;14.28;95.14;100784.94;5286233;28;20515;-73
2023/07/30 01:05:14;;;;;;;10.07;3.90;;;;;;;14.18;95.42;100788.69;5285964;28;20123;-73
2023/07/30 01:07:46;;;;;;;13.67;4.37;;;;;;;14.18;96.04;100793.94;5286234;28;20028;-72
2023/07/30 01:10:18;;;;;;;14.73;3.83;;;;;;;14.19;95.98;100798.28;5286509;28;20132;-73
2023/07/30 01:12:51;;;;;;;11.13;3.47;;;;;;;14.20;96.45;100800.88;5286213;28;20032;-73
2023/07/30 01:15:22;;;;;;;9.18;3.67;;;;;;;14.20;96.29;100800.88;5266703;28;20044;-73
2023/07/30 01:17:55;;;;;;;8.47;3.30;;;;;;;14.19;96.67;100807.00;5285483;28;20115;-74
2023/07/30 01:20:32;;;;;;;11.75;4.15;;;;;;;14.18;97.06;100810.56;5285910;28;20032;-72
2023/07/30 01:23:03;;;;;;;9.32;3.13;;;;;;;14.09;97.12;100810.78;5285887;28;20024;-72
2023/07/30 01:25:36;;;;;;;9.77;3.40;;;;;;;14.12;97.48;100809.84;5285567;28;20035;-72
2023/07/30 01:28:16;;;;;;;8.13;4.00;;;;;;;14.05;98.25;100806.53;5284581;28;20082;-72
2023/07/30 01:30:49;;;;;;;10.07;3.97;;;;;;;14.01;98.57;100811.00;5285845;28;20380;-72
2023/07/30 01:33:21;;;;;;;;;;;;;;;14.01;98.12;100816.25;5284949;28;20033;-72
2023/07/30 01:35:53;;;;;;;10.57;4.22;;;;;;;14.01;99.55;100823.25;5284674;28;19919;-73
2023/07/30 01:38:25;;;;;;;;;;;;;;;14.00;99.21;100811.03;5286356;28;20033;-72
2023/07/30 01:40:57;;;;;;;12.93;4.25;;;;;;;13.97;99.72;100821.59;5285653;28;19915;-70
2023/07/30 01:43:28;;;;;;;13.63;3.80;;;;;;;13.97;99.94;100821.59;5285747;28;20024;-72
2023/07/30 01:46:00;;;;;;;11.47;3.77;;;;;;;13.94;100.00;100822.56;5284461;28;20167;-72
2023/07/30 01:48:31;;;;;;;13.60;4.63;;;;;;;13.90;100.00;100820.06;5283855;28;20039;-73
2023/07/30 01:51:02;;;;;;;6.20;3.30;;;;;;;13.85;100.00;100826.25;5285314;28;20057;-72
2023/07/30 01:53:34;;;;;;;16.10;4.07;;;;;;;13.89;100.00;100826.19;5285463;28;20044;-73
2023/07/30 01:56:05;;;;;;;14.27;5.83;;;;;;;13.86;100.00;100832.34;5285089;28;20037;-72
2023/07/30 01:58:36;;;;;;;12.30;4.10;;;;;;;13.84;100.00;100829.75;5285587;28;20035;-72
2023/07/30 02:01:08;;;;;;;13.57;3.83;;;;;;;13.85;100.00;100826.25;5285026;28;20037;-72
2023/07/30 02:03:39;;;;;;;14.60;4.63;;;;;;;13.83;100.00;100833.31;5284913;28;20037;-73
2023/07/30 02:06:11;;;;;;;13.80;4.67;;;;;;;13.82;100.00;100828.94;5283814;28;20342;-72
2023/07/30 02:08:43;;;;;;;9.48;3.97;;;;;;;13.87;100.00;100831.47;5284714;28;20032;-73
2023/07/30 02:11:14;;;;;;;8.53;4.27;;;;;;;13.88;100.00;100825.34;5284721;28;20029;-73
2023/07/30 02:13:46;;;;;;;15.17;4.70;;;;;;;13.90;100.00;100830.53;5284857;28;20052;-72
2023/07/30 02:16:17;;;;;;;12.80;3.97;;;;;;;13.93;100.00;100823.44;5284700;28;20036;-73
2023/07/30 02:18:48;;;;;;;12.23;4.67;;;;;;;13.97;100.00;100817.19;5283138;28;20024;-73
2023/07/30 02:21:20;;;;;;;14.30;4.20;;;;;;;13.95;100.00;100818.16;5284821;28;20040;-73
2023/07/30 02:23:51;;;;;;;10.57;4.37;;;;;;;13.91;100.00;100814.78;5284366;28;20123;-73
2023/07/30 02:26:22;;;;;;;11.30;4.30;;;;;;;13.91;100.00;100808.66;5284321;28;20028;-73
2023/07/30 02:28:54;;;;;;;12.43;4.67;;;;;;;13.95;100.00;100813.78;5284908;28;20043;-73
2023/07/30 02:31:25;;;;;;;11.77;4.23;;;;;;;13.97;100.00;100819.81;5284283;28;20111;-72
2023/07/30 02:33:56;;;;;;;13.80;4.47;;;;;;;14.00;100.00;100808.41;5283365;28;20464;-73
2023/07/30 02:36:28;;;;;;;9.90;4.17;;;;;;;14.01;100.00;100812.75;5284422;28;20040;-73
2023/07/30 02:38:59;;;;;;;11.60;4.83;;;;;;;14.08;100.00;100816.06;5284390;28;20056;-73
2023/07/30 02:41:30;;;;;;;13.13;4.83;;;;;;;14.13;100.00;100815.03;5284348;28;20025;-72
2023/07/30 02:44:02;;;;;;;17.50;7.13;;;;;;;14.11;100.00;100806.38;5284283;28;20032;-72
2023/07/30 02:46:33;;;;;;;15.97;5.20;;;;;;;14.16;100.00;100814.97;5284297;28;20025;-73
2023/07/30 02:49:04;;;;;;;13.90;4.83;;;;;;;14.18;100.00;100818.41;5283852;28;20204;-73
2023/07/30 02:51:36;;;;;;;14.37;4.93;;;;;;;14.26;100.00;100814.72;5284155;28;20075;-73
2023/07/30 02:54:08;;;;;;;10.33;5.20;;;;;;;14.23;100.00;100818.25;5284037;28;20036;-73
2023/07/30 02:56:39;;;;;;;14.98;5.63;;;;;;;14.21;100.00;100817.44;5282798;28;20025;-72
2023/07/30 02:59:10;;;;;;;12.43;5.33;;;;;;;14.22;100.00;100817.41;5284432;28;20070;-73
2023/07/30 03:01:42;;;;;;;12.47;5.40;;;;;;;14.25;100.00;100821.72;5283386;28;20504;-72
2023/07/30 03:04:13;;;;;;;10.67;4.97;;;;;;;14.27;100.00;100816.44;5283371;28;20029;-72
2023/07/30 03:06:44;;;;;;;14.60;5.43;;;;;;;14.28;100.00;100820.75;5283063;28;20121;-73
2023/07/30 03:09:16;;;;;;;14.63;5.37;;;;;;;14.31;100.00;100818.06;5283452;28;20467;-72
2023/07/30 03:11:49;;;;;;;12.77;5.17;;;;;;;14.30;100.00;100818.97;5283135;28;20036;-72
2023/07/30 03:14:20;;;;;;;11.70;4.50;;;;;;;14.20;100.00;100827.09;5283441;28;20376;-71
2023/07/30 03:16:52;;;;;;;13.20;5.03;;;;;;;14.26;100.00;100826.06;5282220;28;20120;-73
2023/07/30 03:19:23;;;;;;;15.23;5.80;;;;;;;14.28;100.00;100819.03;5283147;28;20032;-72
2023/07/30 03:21:54;;;;;;;14.87;5.33;;;;;;;14.30;100.00;100818.97;5283413;28;20040;-72
2023/07/30 03:24:26;;;;;;;13.23;4.63;;;;;;;14.33;100.00;100826.72;5282348;28;20120;-71
2023/07/30 03:26:57;;;;;;;17.37;6.77;;;;;;;14.35;100.00;100817.94;5282401;28;20043;-72
2023/07/30 03:29:28;;;;;;;18.67;5.20;;;;;;;14.33;100.00;100824.13;5283676;28;20035;-72
2023/07/30 03:32:00;;;;;;;13.90;4.83;;;;;;;14.35;100.00;100824.94;5283296;28;20096;-72
2023/07/30 03:34:31;;;;;;;14.07;3.97;;;;;;;14.40;100.00;100823.91;5283570;28;20032;-73
2023/07/30 03:37:02;;;;;;;14.27;5.37;;;;;;;14.38;100.00;100822.25;5283385;28;20045;-73
2023/07/30 03:39:34;;;;;;;13.07;4.97;;;;;;;14.35;100.00;100824.94;5282892;28;20032;-72
2023/07/30 03:42:05;;;;;;;12.40;4.47;;;;;;;14.34;100.00;100826.69;5281938;28;20056;-73
2023/07/30 03:44:37;;;;;;;17.63;5.17;;;;;;;14.35;100.00;100831.06;5283299;28;20025;-72
2023/07/30 03:47:09;;;;;;;19.93;5.97;;;;;;;14.35;100.00;100832.81;5283415;28;20037;-72
2023/07/30 03:49:40;;;;;;;13.63;5.25;;;;;;;14.38;100.00;100835.38;5281699;28;20115;-73
2023/07/30 03:52:11;;;;;;;15.37;5.30;;;;;;;14.36;100.00;100838.03;5282886;28;20056;-72
2023/07/30 03:54:43;;;;;;;15.93;4.67;;;;;;;14.37;100.00;100839.72;5282974;28;20033;-72
2023/07/30 03:57:14;;;;;;;17.70;4.53;;;;;;;14.46;100.00;100843.00;5282005;28;20068;-72
2023/07/30 03:59:45;;;;;;;14.77;4.23;;;;;;;14.43;100.00;100843.94;5282991;28;20041;-72
2023/07/30 04:02:17;;;;;;;15.67;5.77;;;;;;;14.48;100.00;100838.59;5283163;28;20373;-73
2023/07/30 04:04:49;;;;;;;10.40;4.23;;;;;;;14.49;100.00;100841.16;5283066;28;20037;-72
2023/07/30 04:07:21;;;;;;;16.25;5.18;;;;;;;14.46;100.00;100845.59;5283090;28;20106;-72
2023/07/30 04:09:52;;;;;;;14.87;5.70;;;;;;;14.45;100.00;100850.00;5283108;28;20476;-72
2023/07/30 04:12:23;;;;;;;18.77;5.87;;;;;;;14.46;100.00;100843.88;5282788;28;20467;-72
2023/07/30 04:14:55;;;;;;;17.83;5.90;;;;;;;14.48;100.00;100836.81;5283095;28;20602;-72
2023/07/30 04:17:26;;;;;;;20.50;5.97;;;;;;;14.43;100.00;100843.94;5282729;28;20078;-72
2023/07/30 04:19:57;;;;;;;22.83;6.93;;;;;;;14.44;100.00;100848.31;5281427;28;20032;-72
2023/07/30 04:22:29;;;;;;;16.50;5.73;;;;;;;14.47;100.00;100849.97;5282951;28;20032;-72
2023/07/30 04:25:00;;;;;;;14.90;5.80;;;;;;;14.46;100.00;100848.22;5283075;28;20086;-72
2023/07/30 04:27:32;;;;;;;21.67;7.00;;;;;;;14.47;100.00;100845.56;5283206;28;20090;-72
2023/07/30 04:30:05;;;;;;;16.57;5.87;;;;;;;14.51;100.00;100855.09;5282919;28;20464;-73
2023/07/30 04:32:36;;;;;;;16.30;5.80;;;;;;;14.54;100.00;100848.91;5282938;28;20028;-72
2023/07/30 04:35:08;;;;;;;24.23;6.90;;;;;;;14.53;100.00;100845.41;5264935;28;20055;-72
2023/07/30 04:37:39;;;;;;;16.70;6.27;;;;;;;14.60;100.00;100846.13;5283184;28;20031;-72
2023/07/30 04:40:11;;;;;;;15.03;5.77;;;;;;;14.65;100.00;100851.22;5282629;28;20029;-73
2023/07/30 04:42:42;;;;;;;20.07;6.10;;;;;;;14.71;100.00;100851.06;5281378;28;20064;-73
2023/07/30 04:45:13;;;;;;;17.53;7.37;;;;;;;14.72;100.00;100851.03;5283051;28;20032;-72
2023/07/30 04:47:45;;;;;;;18.87;6.60;;;;;;;14.71;100.00;100846.66;5282930;28;20386;-72
2023/07/30 04:50:16;;;;;;;19.00;6.83;;;;;;;14.77;100.00;100849.13;5285106;28;20064;-72
2023/07/30 04:52:47;;;;;;;16.13;7.47;;;;;;;14.87;100.00;100844.47;5286193;28;20045;-72
2023/07/30 04:55:19;;;;;;;16.37;6.57;;;;;;;14.91;100.00;100846.09;5286535;28;20028;-72
2023/07/30 04:57:50;;;;;;;20.40;6.70;;;;;;;14.94;100.00;100850.38;5286504;28;20033;-72
2023/07/30 05:00:22;;;;;;;22.87;8.07;;;;;;;14.94;100.00;100856.50;5286215;28;20051;-71
2023/07/30 05:02:53;;;;;;;20.10;7.13;;;;;;;14.97;100.00;100858.16;5286505;28;20387;-71
2023/07/30 05:05:24;;;;;;;21.93;6.97;;;;;;;14.90;100.00;100857.50;5286082;28;20047;-71
2023/07/30 05:07:56;;;;;;;20.67;7.13;;;;;;;15.02;100.00;100865.91;5286274;28;20373;-73
2023/07/30 05:10:27;;;;;;;20.10;7.17;;;;;;;15.02;100.00;100864.16;5286272;28;20062;-72
2023/07/30 05:12:59;;;;;;;22.43;6.83;;;;;;;15.03;100.00;100871.09;5285942;28;20094;-73
2023/07/30 05:15:30;;;;;;;19.77;7.50;;;;;;;15.00;100.00;100879.06;5285860;28;20039;-72
2023/07/30 05:18:01;;;;;;;18.50;6.43;;;;;;;14.99;100.00;100866.88;5286270;28;20036;-73
2023/07/30 05:20:33;;;;;;;21.43;7.33;;;;;;;15.04;100.00;100872.84;5285660;28;20032;-72
2023/07/30 05:23:04;;;;;;;21.83;6.87;;;;;;;15.08;100.00;100877.06;5285716;28;20052;-72
2023/07/30 05:25:35;;;;;;;19.07;7.43;;;;;;;15.12;100.00;100875.25;5285917;28;20039;-72
2023/07/30 05:28:07;;;;;;;17.03;6.60;;;;;;;15.12;100.00;100875.25;5286144;28;20052;-73
2023/07/30 05:30:39;;;;;;;18.37;6.27;;;;;;;15.06;100.00;100885.91;5285691;28;20145;-72
2023/07/30 05:33:10;;;;;;;21.50;6.83;;;;;;;15.11;100.00;100873.50;5286168;28;20028;-72
2023/07/30 05:35:41;;;;;;;16.47;6.90;;;;;;;15.14;100.00;100878.66;5285592;28;20217;-72
2023/07/30 05:38:12;;;;;;;21.57;8.33;;;;;;;15.20;100.00;100875.88;5285784;28;20064;-72
2023/07/30 05:40:44;;;;;;;19.10;6.73;;;;;;;15.18;100.00;100875.03;5285795;28;20032;-73
2023/07/30 05:43:15;;;;;;;23.70;8.03;;;;;;;15.24;100.00;100869.59;5285883;28;20031;-72
2023/07/30 05:45:46;;;;;;;21.03;6.67;;;;;;;15.27;100.00;100877.38;5285600;28;20086;-72
2023/07/30 05:48:18;;;;;;;28.50;7.47;;;;;;;15.31;100.00;100871.13;5285293;28;20035;-73
2023/07/30 05:50:49;;;;;;;23.17;7.77;;;;;;;15.32;100.00;100866.75;5285043;28;20032;-73
2023/07/30 05:53:21;;;;;;;18.67;6.23;;;;;;;15.34;100.00;100874.56;5285421;28;20549;-73
2023/07/30 05:55:52;;;;;;;19.60;6.53;;;;;;;15.40;100.00;100880.50;5284978;28;20044;-73
2023/07/30 05:58:23;;;;;;;22.63;7.83;;;;;;;15.39;100.00;100872.66;5285040;28;20040;-72
2023/07/30 06:00:55;;;;;;;26.70;8.70;;;;;;;15.43;100.00;100883.03;5284301;28;20025;-71
2023/07/30 06:03:26;;;;;;;18.33;6.97;;;;;;;15.42;100.00;100878.69;5284786;28;20063;-72
2023/07/30 06:05:57;;;;;;;25.27;7.63;;;;;;;15.44;100.00;100886.50;5284893;28;20357;-71
2023/07/30 06:08:30;;;;;;;23.00;6.57;;;;;;;15.53;100.00;100886.22;5285224;28;20043;-73
2023/07/30 06:11:03;;;;;;;23.20;6.97;;;;;;;15.54;100.00;100887.09;5285110;28;20032;-73
2023/07/30 06:13:34;;;;;;;21.33;8.30;;;;;;;15.56;100.00;100886.13;5284838;28;20495;-73
2023/07/30 06:16:05;;;;;;;21.43;6.00;;;;;;;15.71;100.00;100882.13;5284987;28;20032;-71
2023/07/30 06:18:37;;;;;;;23.00;6.63;;;;;;;15.73;100.00;100905.72;5284523;28;20032;-72
2023/07/30 06:21:08;;;;;;;29.43;8.13;;;;;;;15.76;100.00;100898.66;5284905;28;20039;-73
2023/07/30 06:23:39;;;;;;;19.60;6.47;;;;;;;15.73;100.00;100898.72;5284440;28;20028;-72
2023/07/30 06:26:11;;;;;;;22.57;7.57;;;;;;;15.79;100.00;100892.44;5284721;28;20108;-73
2023/07/30 06:28:42;;;;;;;27.40;7.97;;;;;;;15.88;100.00;100886.03;5284445;28;20471;-72
2023/07/30 06:31:14;;;;;;;19.77;7.07;;;;;;;15.88;100.00;100896.53;5283469;28;20058;-74
2023/07/30 06:33:45;;;;;;;16.63;6.83;;;;;;;15.78;100.00;100893.34;5284570;28;20032;-74
2023/07/30 06:36:16;;;;;;;20.63;6.40;;;;;;;15.94;100.00;100891.06;5284629;28;20114;-73
2023/07/30 06:38:48;;;;;;;21.37;6.97;;;;;;;16.02;100.00;100896.94;5284511;28;20059;-73
2023/07/30 06:41:19;;;;;;;18.23;6.50;;;;;;;16.08;99.80;100893.22;5284324;28;20036;-73
2023/07/30 06:43:51;;;;;;;19.00;6.30;;;;;;;16.09;99.09;100880.03;5284061;28;20074;-72
2023/07/30 06:46:22;;;;;;;19.83;6.63;;;;;;;16.20;98.61;100892.81;5284124;28;20441;-72
2023/07/30 06:48:53;;;;;;;17.20;5.60;;;;;;;16.25;98.58;100885.63;5284046;28;20479;-73
2023/07/30 06:51:25;;;;;;;21.87;5.50;;;;;;;16.27;98.50;100894.31;5282200;28;20137;-74
2023/07/30 06:53:56;;;;;;;19.23;6.03;;;;;;;16.29;97.73;100892.47;5277840;28;20387;-73
2023/07/30 06:56:28;;;;;;;19.60;5.80;;;;;;;16.42;97.83;100887.66;5282959;28;20122;-75
2023/07/30 06:58:59;;;;;;;24.33;6.30;;;;;;;16.51;96.78;100889.09;5283415;28;20082;-76
2023/07/30 07:01:30;;;;;;;17.67;5.50;;;;;;;16.57;96.47;100896.78;5282059;28;20035;-74
2023/07/30 07:04:02;;;;;;;20.90;5.47;;;;;;;16.54;96.24;100887.22;5282885;28;20098;-73
2023/07/30 07:06:33;;;;;;;22.10;5.77;;;;;;;16.45;96.28;100899.84;5281545;28;20387;-74
2023/07/30 07:09:05;;;;;;;19.97;5.33;;;;;;;16.44;96.60;100908.63;5283563;28;20185;-75
2023/07/30 07:11:37;;;;;;;17.90;6.03;;;;;;;16.30;96.71;100909.16;5282704;28;20491;-74
2023/07/30 07:14:08;;;;;;;19.50;6.20;;;;;;;16.18;97.01;100918.28;5280757;28;20452;-74
2023/07/30 07:16:40;;;;;;;23.10;6.17;;;;;;;16.27;97.71;100912.72;5281891;28;20059;-75
2023/07/30 07:19:11;;;;;;;22.90;6.63;;;;;;;16.24;97.14;100915.47;5281451;28;20170;-75
2023/07/30 07:21:43;;;;;;;23.30;6.37;;;;;;;16.45;97.13;100910.38;5280800;28;20357;-75
2023/07/30 07:24:15;;;;;;;20.17;6.43;;;;;;;16.60;95.71;100899.31;5283338;28;20116;-74
2023/07/30 07:26:46;;;;;;;19.83;6.85;;;;;;;16.80;95.03;100903.00;5275869;28;20028;-75
2023/07/30 07:29:17;;;;;;;17.10;6.03;;;;;;;17.03;93.75;100905.63;5281702;28;20036;-75
2023/07/30 07:31:49;;;;;;;20.70;5.80;;;;;;;17.25;92.02;100904.81;5282228;28;20037;-75
2023/07/30 07:34:21;;;;;;;22.73;6.07;;;;;;;17.55;90.45;100905.41;5280952;28;20040;-76
2023/07/30 07:36:52;;;;;;;;;;;;;;;18.02;89.79;100909.69;5281871;28;20072;-82
2023/07/30 07:39:24;;;;;;;14.98;5.25;;;;;;;18.07;85.65;100923.53;5282807;28;20347;-81
2023/07/30 07:41:55;;;;;;;21.37;6.07;;;;;;;17.85;86.91;100928.78;5281537;28;20040;-81
2023/07/30 07:44:27;;;;;;;17.77;6.63;;;;;;;17.50;87.23;100931.09;5282550;28;20120;-81
2023/07/30 07:46:58;;;;;;;15.77;4.30;;;;;;;17.34;89.59;100922.91;5282890;28;20032;-79
2023/07/30 07:49:30;;;;;;;22.13;5.87;;;;;;;17.16;89.04;100921.81;5281050;28;20036;-80
2023/07/30 07:52:01;;;;;;;19.67;5.20;;;;;;;17.36;89.29;100926.34;5281834;28;20048;-81
2023/07/30 07:54:32;;;;;;;22.00;5.50;;;;;;;17.61;87.75;100928.88;5280023;28;20452;-83
2023/07/30 07:57:04;;;;;;;18.20;5.37;;;;;;;17.64;86.98;100923.47;5278712;28;20063;-82
2023/07/30 07:59:35;;;;;;;23.57;5.87;;;;;;;17.88;86.23;100920.78;5282916;28;20074;-81
2023/07/30 08:02:07;;;;;;;21.00;4.50;;;;;;;18.11;84.90;100911.94;5282877;28;20115;-81
2023/07/30 08:04:38;;;;;;;17.67;5.07;;;;;;;18.07;83.62;100927.97;5283209;28;20029;-82
2023/07/30 08:07:09;;;;;;;17.03;5.23;;;;;;;18.33;84.75;100917.13;5283166;28;20036;-82
2023/07/30 08:09:41;;;;;;;17.57;5.23;;;;;;;18.28;81.76;100934.09;5282859;28;20056;-83
2023/07/30 08:12:15;;;;;;;19.10;5.33;;;;;;;18.04;82.74;100944.75;5281530;28;20361;-79
2023/07/30 08:14:46;;;;;;;18.00;5.75;;;;;;;18.23;83.53;100936.94;5283245;28;20464;-82
2023/07/30 08:17:18;;;;;;;18.03;4.40;;;;;;;18.44;81.99;100936.94;5282731;28;20116;-81
2023/07/30 08:19:50;;;;;;;17.48;5.28;;;;;;;18.71;80.14;100942.81;5281498;28;20025;-82
2023/07/30 08:22:21;;;;;;;17.83;5.10;;;;;;;18.34;80.29;100933.84;5282882;28;20021;-81
2023/07/30 08:24:53;;;;;;;16.83;5.37;;;;;;;18.06;82.50;100937.63;5285264;28;20367;-82
2023/07/30 08:27:24;;;;;;;16.13;5.23;;;;;;;18.23;82.84;100955.41;5286056;28;20033;-82
2023/07/30 08:29:55;;;;;;;18.23;4.83;;;;;;;17.95;81.29;100946.00;5286988;28;20433;-81
2023/07/30 08:32:27;;;;;;;23.10;4.70;;;;;;;17.82;82.32;100942.97;5287214;28;20450;-81
2023/07/30 08:34:58;;;;;;;18.60;5.57;;;;;;;17.95;82.28;100937.22;5287636;28;20475;-85
2023/07/30 08:37:30;;;;;;;16.47;4.60;;;;;;;17.96;81.80;100938.94;5287163;28;20025;-84
2023/07/30 08:40:02;;;;;;;17.63;5.80;;;;;;;18.08;81.45;100938.44;5287110;28;20422;-81
2023/07/30 08:42:34;;;;;;;21.90;4.85;;;;;;;18.30;80.68;100941.00;5287020;28;20693;-83
2023/07/30 08:45:07;;;;;;;16.93;4.63;;;;;;;18.19;80.01;100936.22;5286767;28;20060;-82
2023/07/30 08:47:41;;;;;;;15.35;5.00;;;;;;;18.11;79.74;100940.97;5286979;28;20067;-81
2023/07/30 08:50:13;;;;;;;20.73;5.35;;;;;;;17.80;81.37;100946.59;5286477;28;20537;-81
2023/07/30 08:52:46;;;;;;;21.80;5.22;;;;;;;17.61;83.20;100947.34;5287050;28;20135;-83
2023/07/30 08:55:18;;;;;;;22.27;5.70;;;;;;;17.27;85.17;100945.97;5286828;28;20040;-81
2023/07/30 08:57:51;;;;;;;18.02;4.65;;;;;;;17.46;86.91;100934.75;5286790;28;20032;-82
2023/07/30 09:00:25;;;;;;;18.73;5.45;;;;;;;17.67;85.92;100930.41;5287791;28;20032;-80
2023/07/30 09:03:00;;;;;;;15.23;4.22;;;;;;;18.19;85.25;100932.69;5286868;28;20078;-82
2023/07/30 09:05:31;;;;;;;15.45;4.03;;;;;;;18.62;80.73;100935.28;5285444;28;20032;-82
2023/07/30 09:08:03;;;;;;;21.43;5.27;;;;;;;18.67;79.46;100946.50;5285112;28;20043;-81
2023/07/30 09:10:34;;;;;;;12.77;4.17;;;;;;;18.73;78.37;100925.94;5286212;28;20025;-82
2023/07/30 09:13:06;;;;;;;13.83;4.47;;;;;;;19.08;76.20;100931.47;5286342;28;20425;-82
2023/07/30 09:15:38;;;;;;;16.20;5.30;;;;;;;19.32;73.23;100933.91;5285347;28;20047;-82
2023/07/30 09:18:09;;;;;;;;;;;;;;;19.22;73.85;100933.44;5286096;28;20032;-81
2023/07/30 09:20:41;;;;;;;12.13;4.77;;;;;;;19.26;74.85;100936.81;5286684;28;20310;-80
2023/07/30 09:23:13;;;;;;;17.08;4.50;;;;;;;19.20;72.27;100930.03;5287122;28;20067;-81
2023/07/30 09:25:49;;;;;;;15.27;3.72;;;;;;;19.65;71.67;100943.78;5285731;28;20043;-82
2023/07/30 09:28:20;;;;;;;13.15;4.30;;;;;;;19.42;69.61;100940.44;5286373;28;20081;-81
2023/07/30 09:31:00;;;;;;;12.47;4.20;;;;;;;19.25;70.48;100935.94;5284711;28;20433;-81
2023/07/30 09:33:32;;;;;;;15.02;3.88;;;;;;;19.58;68.58;100934.44;5285870;28;20032;-84
2023/07/30 09:36:04;;;;;;;;;;;;;;;20.01;67.54;100935.88;5284562;28;20036;-84
2023/07/30 09:38:39;;;;;;;14.50;4.57;;;;;;;20.44;68.19;100929.31;5289385;28;20202;-82
2023/07/30 09:41:14;;;;;;;18.00;4.32;;;;;;;20.63;65.62;100934.53;5284660;28;20529;-82
2023/07/30 09:43:45;;;;;;;13.60;4.60;;;;;;;20.92;63.96;100927.69;5285906;28;20054;-81
2023/07/30 09:46:17;;;;;;;13.30;4.53;;;;;;;20.52;63.49;100945.66;5285885;28;20028;-80
2023/07/30 09:48:50;;;;;;;10.85;3.30;;;;;;;19.89;65.98;100943.56;5284909;28;20098;-81
2023/07/30 09:51:21;;;;;;;10.30;3.57;;;;;;;20.02;65.92;100948.16;5285503;28;20033;-81
2023/07/30 09:53:53;;;;;;;11.07;3.77;;;;;;;20.63;65.20;100945.13;5284264;28;20135;-83
2023/07/30 09:56:25;;;;;;;14.27;3.85;;;;;;;20.98;63.18;100940.63;5285627;28;20112;-81
2023/07/30 09:58:56;;;;;;;9.60;3.67;;;;;;;21.10;64.38;100939.09;5285644;28;20115;-82
2023/07/30 10:01:30;;;;;;;10.27;3.17;;;;;;;21.01;63.47;100951.06;5287535;28;20119;-81
2023/07/30 10:04:08;;;;;;;13.80;3.35;;;;;;;20.63;64.27;100948.59;5292152;28;20317;-81
2023/07/30 10:06:51;;;;;;;11.35;3.58;;;;;;;19.88;64.48;100955.06;5286204;28;20056;-83
2023/07/30 10:09:25;;;;;;;15.65;3.25;;;;;;;19.81;65.74;100954.50;5285724;28;20487;-80
2023/07/30 10:11:58;;;;;;;13.93;3.67;;;;;;;19.45;66.58;100956.16;5285185;28;20388;-80
2023/07/30 10:14:29;;;;;;;12.43;3.75;;;;;;;19.43;66.98;100958.03;5285512;28;20029;-81
2023/07/30 10:17:04;;;;;;;9.70;2.73;;;;;;;19.43;66.41;100951.88;5287617;28;20033;-80
2023/07/30 10:19:36;;;;;;;10.73;3.08;;;;;;;19.45;66.98;100965.91;5284585;28;20025;-79
2023/07/30 10:22:11;;;;;;;9.55;2.90;;;;;;;19.80;65.54;100969.53;5282978;28;20047;-80
2023/07/30 10:24:56;;;;;;;11.95;3.33;;;;;;;20.03;63.48;100973.69;5283854;28;20036;-81
2023/07/30 10:27:36;;;;;;;10.02;2.83;;;;;;;20.42;63.31;100970.91;5284172;28;20531;-80
2023/07/30 10:30:15;;;;;;;6.90;3.28;;;;;;;20.52;61.04;100967.69;5283590;28;20032;-80
2023/07/30 10:32:59;;;;;;;9.02;2.35;;;;;;;20.40;59.69;100973.63;5283337;28;20437;-82
2023/07/30 10:35:42;;;;;;;10.10;3.72;;;;;;;20.20;61.84;100966.69;5284122;28;20487;-82
2023/07/30 10:38:13;;;;;;;;;;;;;;;19.89;61.20;100983.25;5282605;28;20060;-82
2023/07/30 10:41:10;;;;;;;9.85;2.70;;;;;;;20.00;62.10;100996.81;5284770;28;20013;-81
2023/07/30 10:43:53;;;;;;;9.73;2.70;;;;;;;20.13;60.98;100994.41;5283718;28;20028;-85
2023/07/30 10:46:26;;;;;;;10.98;2.72;;;;;;;21.15;58.39;100995.34;5282154;28;20028;-83
2023/07/30 10:48:57;;;;;;;7.75;2.63;;;;;;;22.08;58.95;100991.09;5283120;28;20471;-80
2023/07/30 10:51:29;;;;;;;7.07;2.90;;;;;;;21.62;58.67;100993.72;5283599;28;20056;-80
2023/07/30 10:54:00;;;;;;;9.23;3.03;;;;;;;21.09;58.59;100978.00;5283669;28;20037;-75
2023/07/30 10:56:34;;;;;;;9.73;3.27;;;;;;;20.66;62.37;100990.84;5284306;28;20076;-76
2023/07/30 10:59:07;;;;;;;7.95;3.20;;;;;;;20.35;65.04;100983.59;5282282;28;20272;-75
2023/07/30 11:01:43;;;;;;;10.43;3.83;;;;;;;20.12;64.61;100982.94;5283837;28;20384;-75
2023/07/30 11:04:18;;;;;;;10.27;3.10;;;;;;;19.81;66.03;100984.44;5283061;28;20028;-76
2023/07/30 11:06:51;;;;;;;7.05;3.20;;;;;;;19.72;66.92;100986.66;5283691;28;20082;-75
2023/07/30 11:09:24;;;;;;;8.88;3.35;;;;;;;19.37;66.97;100999.72;5283474;28;20037;-75
2023/07/30 11:11:56;;;;;;;8.52;2.40;;;;;;;19.11;68.29;100999.13;5283430;28;20040;-75
2023/07/30 11:14:27;;;;;;;9.10;2.60;;;;;;;18.66;71.59;101001.09;5283378;28;20036;-75
2023/07/30 11:16:59;;;;;;;6.93;2.60;;;;;;;18.63;71.31;101008.25;5283891;28;20112;-75
2023/07/30 11:19:33;;;;;;;9.57;3.22;;;;;;;18.44;70.62;101003.78;5282985;28;20036;-76
2023/07/30 11:22:09;;;;;;;8.25;3.17;;;;;;;18.59;72.24;100997.88;5283343;28;20135;-75
2023/07/30 11:24:40;;;;;;;11.35;2.85;;;;;;;19.58;68.41;101009.34;5283245;28;20032;-75
2023/07/30 11:27:12;;;;;;;10.60;3.43;;;;;;;20.79;63.69;101003.47;5283246;28;20489;-76
2023/07/30 11:29:54;;;;;;;10.10;2.67;;;;;;;23.00;56.21;101008.69;5282615;28;20036;-74
2023/07/30 11:32:29;;;;;;;7.90;2.72;;;;;;;22.85;55.00;101013.16;5282762;28;20040;-77
2023/07/30 11:35:01;;;;;;;7.78;2.72;;;;;;;22.92;54.20;101021.59;5283630;28;20440;-76
2023/07/30 11:37:33;;;;;;;12.43;2.97;;;;;;;22.55;54.59;101022.00;5282940;28;20059;-74
2023/07/30 11:40:05;;;;;;;7.60;2.70;;;;;;;22.62;54.20;101024.31;5283616;28;20058;-75